NCAR-RAP Real-Time Weather Data

Output produced by METARs form (12 August 2020  18:47 UTC)
found at http://weather.rap.ucar.edu/surface/
 
KPKB 121753Z 00000KT 10SM FEW040 BKN055 30/19 A3008 RMK AO2 SLP175 T03000189 10306 20194 58006 $
KPKB 121653Z 34003KT 10SM BKN037 BKN045 29/19 A3009 RMK AO2 SLP180 T02890194 $
KPKB 121553Z 08005KT 10SM SCT039 29/19 A3009 RMK AO2 SLP180 T02940194 $
KPKB 121453Z 00000KT 10SM FEW029 28/21 A3009 RMK AO2 SLP182 T02830206 51002 $
KPKB 121353Z VRB04KT 10SM CLR 26/21 A3009 RMK AO2 SLP180 T02610206 $
KPKB 121253Z 00000KT 10SM BCFG CLR 24/21 A3009 RMK AO2 SLP182 T02390206
KPKB 121215Z 00000KT 7SM BCFG FEW001 22/20 A3009 RMK AO2 T02220200
KPKB 121159Z 00000KT 1 1/4SM BCFG FEW000 20/19 A3009 RMK AO2 FG FEW000 VIS NE 1/2 S-SW 4 T02000189
KPKB 121153Z 00000KT 1/2SM BCFG FEW000 19/19 A3009 RMK AO2 SLP182 FG FEW000 T01940189 10217 20183 51015
KPKB 121108Z 00000KT 1/4SM FG BKN000 18/18 A3008 RMK AO2 FG BKN000 T01830178
KPKB 121053Z 00000KT 1/2SM FG BKN000 BKN001 18/18 A3008 RMK AO2 SLP178 FG BKN000 T01830178
KPKB 121035Z AUTO 00000KT 1 1/4SM BR BKN001 19/18 A3007 RMK AO2 T01890178 TSNO
KPKB 121027Z AUTO 00000KT 2 1/2SM BR BKN001 19/18 A3007 RMK AO2 T01890178 TSNO
KPKB 121022Z AUTO 00000KT 5SM BR BKN002 19/18 A3007 RMK AO2 T01890178 TSNO
KPKB 121001Z AUTO 00000KT 9SM SCT001 19/18 A3006 RMK AO2 T01890178 TSNO
KPKB 120953Z AUTO 00000KT 7SM CLR 19/18 A3006 RMK AO2 SLP171 T01890178 TSNO
KPKB 120853Z AUTO 00000KT 9SM CLR 19/18 A3004 RMK AO2 SLP166 T01890178 55000
KPKB 120753Z AUTO 00000KT 8SM CLR 19/18 A3004 RMK AO2 SLP165 T01940183
KPKB 120653Z AUTO 00000KT 10SM CLR 21/19 A3004 RMK AO2 SLP164 T02060189
KPKB 120553Z AUTO 13003KT 9SM CLR 21/19 A3004 RMK AO2 SLP166 T02110194 10267 20206 51006
KPKB 120453Z AUTO 00000KT 10SM CLR 21/19 A3004 RMK AO2 SLP165 T02060194 403110206
KPKB 120353Z AUTO 00000KT 10SM CLR 22/19 A3003 RMK AO2 SLP162 T02170194
KPKB 120253Z 00000KT 10SM CLR 22/20 A3002 RMK AO2 SLP160 T02220200 51014
KPKB 120153Z 00000KT 10SM CLR 24/19 A3002 RMK AO2 SLP157 T02440194
KPKB 120053Z 21004KT 10SM CLR 25/19 A3000 RMK AO2 SLP152 T02500194
KPKB 112353Z 21005KT 10SM CLR 27/19 A2998 RMK AO2 SLP145 T02670194 10311 20267 55002
KPKB 112253Z 20006KT 10SM CLR 28/20 A2998 RMK AO2 SLP143 T02780200
KPKB 112153Z 20008KT 10SM CLR 28/19 A2998 RMK AO2 SLP144 T02830194
KPKB 112053Z VRB05KT 10SM BKN035 29/20 A2999 RMK AO2 SLP146 T02940200 55005
KPKB 111953Z 27009G14KT 10SM BKN036 BKN044 31/20 A2998 RMK AO2 SLP144 T03060200
KPKB 111853Z 21006KT 10SM BKN040 29/20 A3000 RMK AO2 SLP150 T02940200
KPKB 111753Z 20004KT 10SM SCT038 29/19 A3000 RMK AO2 SLP152 T02890194 10294 20222 58005
KPKB 111653Z 18004KT 10SM SCT036 28/19 A3001 RMK AO2 SLP155 T02830189
KPKB 111553Z 00000KT 10SM SCT026 28/19 A3002 RMK AO2 SLP156 T02780189
KPKB 111453Z 26003KT 10SM SCT011 26/21 A3002 RMK SLP158 T02560211 51009 RTS FIBI
KPKB 111353Z 21003KT 10SM FEW014 24/21 A3001 RMK AO2 SLP155 T02390206
KPKB 111322Z 22003KT 10SM SCT011 23/21 A3001 RMK AO2 T02330206
KPKB 111253Z 00000KT 10SM BKN011 BKN110 23/20 A3000 RMK AO2 SLP152 T02280200
KPKB 111240Z 00000KT 10SM BKN011 BKN110 23/20 A3001 RMK AO2 T02280200
KPKB 111153Z 19004KT 10SM BKN110 22/19 A2999 RMK AO2 SLP147 T02220194 10222 20206 51021
KPKB 111053Z 00000KT 10SM FEW015 BKN120 21/19 A2998 RMK AO2 SLP142 T02110194
KPKB 110953Z AUTO 18003KT 10SM CLR 22/19 A2994 RMK AO2 SLP130 T02170189
KPKB 110853Z AUTO 14006KT 10SM CLR 22/19 A2993 RMK AO2 SLP125 T02220194 56009
KPKB 110753Z AUTO 17005KT 10SM CLR 22/19 A2993 RMK AO2 SLP126 T02170189
KPKB 110653Z AUTO 14004KT 10SM CLR 21/18 A2994 RMK AO2 SLP130 T02060183
KPKB 110553Z AUTO 00000KT 10SM CLR 21/19 A2995 RMK AO2 SLP134 T02110189 10289 20211 58010
KPKB 110453Z AUTO 00000KT 10SM CLR 22/19 A2998 RMK AO2 SLP141 T02170189 403220172
KPKB 110353Z AUTO 13004KT 10SM CLR 22/19 A2997 RMK AO2 SLP140 T02220194
KPKB 110253Z 00000KT 10SM CLR 22/19 A2998 RMK AO2 SLP145 T02220194 51007
KPKB 110153Z 00000KT 10SM CLR 24/19 A2998 RMK AO2 SLP142 T02390194
KPKB 110053Z 00000KT 10SM CLR 27/18 A2997 RMK AO2 SLP141 T02670183
KPKB 102353Z 17005KT 10SM CLR 29/18 A2996 RMK AO2 SLP137 T02890183 10322 20289 55010
KPKB 102253Z 17005KT 10SM FEW060 30/18 A2995 RMK AO2 SLP134 T03000183
KPKB 102153Z 13006KT 10SM FEW050 32/18 A2996 RMK AO2 SLP138 T03170183
KPKB 102053Z 17005KT 10SM SCT055 32/18 A2999 RMK AO2 SLP147 T03220178 58025
KPKB 101953Z 15005KT 10SM SCT055 32/18 A3002 RMK AO2 SLP158 T03220178
KPKB 101853Z 00000KT 10SM SCT050 SCT060 31/18 A3005 RMK AO2 SLP167 T03060183